createdAt,value
2023-11-09T00:00:00.721Z,86.4
2023-11-09T00:01:14.036Z,86.3
2023-11-09T00:02:27.346Z,86.4
2023-11-09T00:03:41.640Z,86.4
2023-11-09T00:04:55.933Z,86.5
2023-11-09T00:06:10.227Z,86.5
2023-11-09T00:07:24.520Z,86.5
2023-11-09T00:08:38.814Z,86.2
2023-11-09T00:09:53.107Z,86.1
2023-11-09T00:11:07.400Z,86
2023-11-09T00:12:21.694Z,85.9
2023-11-09T00:13:35.988Z,85.9
2023-11-09T00:14:50.281Z,86
2023-11-09T00:16:04.575Z,85.6
2023-11-09T00:17:18.869Z,85.5
2023-11-09T00:18:32.178Z,85.3
2023-11-09T00:19:46.472Z,85.5
2023-11-09T00:21:00.766Z,85.3
2023-11-09T00:22:15.059Z,85.3
2023-11-09T00:23:29.353Z,85
2023-11-09T00:24:43.647Z,85
2023-11-09T00:25:57.940Z,84.8
2023-11-09T00:27:12.234Z,84.9
2023-11-09T00:28:26.528Z,84.6
2023-11-09T00:29:40.821Z,84.3
2023-11-09T00:30:55.115Z,84.5
2023-11-09T00:32:09.408Z,84.2
2023-11-09T00:33:23.703Z,84.2
2023-11-09T00:34:37.013Z,84.2
2023-11-09T00:35:51.307Z,84.3
2023-11-09T00:37:05.607Z,84.2
2023-11-09T00:38:19.894Z,84.1
2023-11-09T00:39:34.187Z,84.2
2023-11-09T00:40:48.481Z,84.2
2023-11-09T00:42:02.775Z,84.2
2023-11-09T00:43:17.068Z,84.2
2023-11-09T00:44:31.362Z,84.3
2023-11-09T00:45:45.656Z,84.2
2023-11-09T00:46:59.949Z,84.2
2023-11-09T00:48:14.243Z,84
2023-11-09T00:49:28.536Z,84.1
2023-11-09T00:50:41.846Z,84.2
2023-11-09T00:51:56.140Z,84.2
2023-11-09T00:53:10.433Z,84.2
2023-11-09T00:54:24.727Z,84.2
2023-11-09T00:55:39.021Z,83.9
2023-11-09T00:56:53.314Z,84.3
2023-11-09T00:58:07.608Z,84
2023-11-09T00:59:21.902Z,84
2023-11-09T01:00:36.195Z,84
2023-11-09T01:01:50.489Z,84.3
2023-11-09T01:03:04.782Z,84.3
2023-11-09T01:04:19.076Z,84.3
2023-11-09T01:05:33.370Z,84.2
2023-11-09T01:06:46.679Z,84.2
2023-11-09T01:08:00.973Z,84.1
2023-11-09T01:09:15.266Z,84.1
2023-11-09T01:10:29.560Z,84
2023-11-09T01:11:43.853Z,84.2
2023-11-09T01:12:58.147Z,84.2
2023-11-09T01:14:12.440Z,84.3
2023-11-09T01:15:26.734Z,84.4
2023-11-09T01:16:41.028Z,84.4
2023-11-09T01:17:55.321Z,84.3
2023-11-09T01:19:09.615Z,84.3
2023-11-09T01:20:23.908Z,84.2
2023-11-09T01:21:38.202Z,84.1
2023-11-09T01:22:51.512Z,83.6
2023-11-09T01:24:05.805Z,83.5
2023-11-09T01:25:20.099Z,83.5
2023-11-09T01:26:34.393Z,83.4
2023-11-09T01:27:48.686Z,83.4
2023-11-09T01:29:02.980Z,83.3
2023-11-09T01:30:17.274Z,83.3
2023-11-09T01:31:31.567Z,83.1
2023-11-09T01:32:45.861Z,83
2023-11-09T01:34:00.154Z,82.9
2023-11-09T01:35:14.448Z,82.8
2023-11-09T01:36:28.741Z,82.8
2023-11-09T01:37:43.035Z,82.7
2023-11-09T01:38:56.345Z,82.8
2023-11-09T01:40:10.639Z,82.7
2023-11-09T01:41:24.932Z,82.2
2023-11-09T01:42:39.226Z,81.8
2023-11-09T01:43:53.519Z,81.7
2023-11-09T01:45:07.813Z,81.7
2023-11-09T01:46:22.106Z,81.6
2023-11-09T01:47:36.400Z,81.6
2023-11-09T01:48:50.694Z,81.5
2023-11-09T01:50:04.987Z,81.7
2023-11-09T01:51:19.281Z,81.5
2023-11-09T01:52:33.574Z,81.2
2023-11-09T01:53:47.868Z,81.1
2023-11-09T01:55:01.177Z,81.1
2023-11-09T01:56:15.471Z,81.1
2023-11-09T01:57:28.786Z,80.7
2023-11-09T01:58:42.095Z,80.8
2023-11-09T01:59:56.389Z,80.7
2023-11-09T02:01:10.682Z,80.7
2023-11-09T02:02:24.976Z,80.7
2023-11-09T02:03:39.270Z,80.8
2023-11-09T02:04:53.563Z,80.8
2023-11-09T02:06:07.857Z,80.8
2023-11-09T02:07:22.150Z,80.7
2023-11-09T02:08:36.444Z,81
2023-11-09T02:09:50.737Z,81
2023-11-09T02:11:05.031Z,81
2023-11-09T02:12:19.325Z,80.9
2023-11-09T02:13:33.618Z,81
2023-11-09T02:14:46.928Z,81
2023-11-09T02:16:01.221Z,81
2023-11-09T02:17:15.515Z,81
2023-11-09T02:18:29.808Z,80.9
2023-11-09T02:19:44.102Z,81
2023-11-09T02:20:58.395Z,80.9
2023-11-09T02:22:12.689Z,80.9
2023-11-09T02:23:26.983Z,80.9
2023-11-09T02:24:41.276Z,80.9
2023-11-09T02:25:55.570Z,80.7
2023-11-09T02:27:09.864Z,80.9
2023-11-09T02:28:24.158Z,81.1
2023-11-09T02:29:38.451Z,80.9
2023-11-09T02:30:51.761Z,81.2
2023-11-09T02:32:06.054Z,81.4
2023-11-09T02:33:20.348Z,81.5
2023-11-09T02:34:34.642Z,81.4
2023-11-09T02:35:48.935Z,81.2
2023-11-09T02:37:03.229Z,81.2
2023-11-09T02:38:17.522Z,81.3
2023-11-09T02:39:31.816Z,81.5
2023-11-09T02:40:46.109Z,81.5
2023-11-09T02:42:00.403Z,81.6
2023-11-09T02:43:14.696Z,81.5
2023-11-09T02:44:28.990Z,81.5
2023-11-09T02:45:43.284Z,81.6
2023-11-09T02:46:56.593Z,81.5
2023-11-09T02:48:10.888Z,81.4
2023-11-09T02:49:25.182Z,81.1
2023-11-09T02:50:39.475Z,81.2
2023-11-09T02:51:53.769Z,81
2023-11-09T02:53:08.062Z,81.1
2023-11-09T02:54:22.356Z,81
2023-11-09T02:55:36.650Z,81
2023-11-09T02:56:50.943Z,81
2023-11-09T02:58:05.237Z,81
2023-11-09T02:59:19.530Z,80.9
2023-11-09T03:00:33.824Z,80.8
2023-11-09T03:01:48.117Z,80.9
2023-11-09T03:03:01.427Z,80.7
2023-11-09T03:04:15.720Z,80.7
2023-11-09T03:05:30.014Z,80.7
2023-11-09T03:06:44.308Z,80.3
2023-11-09T03:07:58.601Z,80
2023-11-09T03:09:12.895Z,79.7
2023-11-09T03:10:27.189Z,79.7
2023-11-09T03:11:41.482Z,79.8
2023-11-09T03:12:55.775Z,79.6
2023-11-09T03:14:10.069Z,79.3
2023-11-09T03:15:24.363Z,79
2023-11-09T03:16:38.656Z,78.8
2023-11-09T03:17:52.950Z,78.6
2023-11-09T03:19:06.260Z,78.7
2023-11-09T03:20:20.553Z,78.7
2023-11-09T03:21:34.847Z,79
2023-11-09T03:22:49.140Z,79.2
2023-11-09T03:24:03.434Z,79
2023-11-09T03:25:17.727Z,79
2023-11-09T03:26:32.021Z,78.8
2023-11-09T03:27:46.315Z,79
2023-11-09T03:29:00.608Z,79.2
2023-11-09T03:30:14.902Z,79.4
2023-11-09T03:31:29.196Z,79.2
2023-11-09T03:32:43.489Z,78.8
2023-11-09T03:33:57.783Z,78.9
2023-11-09T03:35:11.092Z,79.1
2023-11-09T03:36:25.362Z,78.9
2023-11-09T03:37:39.679Z,79.1
2023-11-09T03:38:53.973Z,78.9
2023-11-09T03:40:08.267Z,78.8
2023-11-09T03:41:22.560Z,78.8
2023-11-09T03:42:36.854Z,78.7
2023-11-09T03:43:51.147Z,78.6
2023-11-09T03:45:05.441Z,78.7
2023-11-09T03:46:19.734Z,78.9
2023-11-09T03:47:34.028Z,78.9
2023-11-09T03:48:48.322Z,78.9
2023-11-09T03:50:02.615Z,79.1
2023-11-09T03:51:16.909Z,78.9
2023-11-09T03:52:30.218Z,78.8
2023-11-09T03:53:44.512Z,78.5
2023-11-09T03:54:58.805Z,78.5
2023-11-09T03:56:12.120Z,78.6
2023-11-09T03:57:26.414Z,78.7
2023-11-09T03:58:40.707Z,78.8
2023-11-09T03:59:55.001Z,78.8
2023-11-09T04:01:09.295Z,78.6
2023-11-09T04:02:23.588Z,78.5
2023-11-09T04:03:37.882Z,78.8
2023-11-09T04:04:52.175Z,78.4
2023-11-09T04:06:06.469Z,78.5
2023-11-09T04:07:20.762Z,78.4
2023-11-09T04:08:35.056Z,78.5
2023-11-09T04:09:49.350Z,78.8
2023-11-09T04:11:03.643Z,78.5
2023-11-09T04:12:16.953Z,78.5
2023-11-09T04:13:31.247Z,78.4
2023-11-09T04:14:45.540Z,78.3
2023-11-09T04:15:59.834Z,78.3
2023-11-09T04:17:14.128Z,78.2
2023-11-09T04:18:28.421Z,77.8
2023-11-09T04:19:42.715Z,78
2023-11-09T04:20:57.008Z,77.7
2023-11-09T04:22:11.302Z,77.6
2023-11-09T04:23:25.596Z,77.3
2023-11-09T04:24:39.889Z,77.3
2023-11-09T04:25:54.183Z,77.4
2023-11-09T04:27:08.476Z,77
2023-11-09T04:28:21.786Z,77
2023-11-09T04:29:36.079Z,76.9
2023-11-09T04:30:50.373Z,76.8
2023-11-09T04:32:04.666Z,76.9
2023-11-09T04:33:18.960Z,76.7
2023-11-09T04:34:33.254Z,76.9
2023-11-09T04:35:47.548Z,76.9
2023-11-09T04:37:01.841Z,76.1
2023-11-09T04:38:16.135Z,76.2
2023-11-09T04:39:30.428Z,76.1
2023-11-09T04:40:44.722Z,76.1
2023-11-09T04:41:59.015Z,75.9
2023-11-09T04:43:13.309Z,75.8
2023-11-09T04:44:26.619Z,75.8
2023-11-09T04:45:40.912Z,75.7
2023-11-09T04:46:55.206Z,75.7
2023-11-09T04:48:09.500Z,75.6
2023-11-09T04:49:23.794Z,75.5
2023-11-09T04:50:38.087Z,75.1
2023-11-09T04:51:52.381Z,74.7
2023-11-09T04:53:06.674Z,74.9
2023-11-09T04:54:20.968Z,74.8
2023-11-09T04:55:35.262Z,74.7
2023-11-09T04:56:49.556Z,74.5
2023-11-09T04:58:03.850Z,74.3
2023-11-09T04:59:18.144Z,74.5
2023-11-09T05:00:31.453Z,74.6
2023-11-09T05:01:45.747Z,74.3
2023-11-09T05:03:00.040Z,74.5
2023-11-09T05:04:14.334Z,74.5
2023-11-09T05:05:28.628Z,74.2
2023-11-09T05:06:42.921Z,73.5
2023-11-09T05:07:57.215Z,74.2
2023-11-09T05:09:11.508Z,74.2
2023-11-09T05:10:25.802Z,74.2
2023-11-09T05:11:40.095Z,73.7
2023-11-09T05:12:54.389Z,73.8
2023-11-09T05:14:08.683Z,73.8
2023-11-09T05:15:22.976Z,73.8
2023-11-09T05:16:36.286Z,73.5
2023-11-09T05:17:50.580Z,73.4
2023-11-09T05:19:04.873Z,73.4
2023-11-09T05:20:19.177Z,73.4
2023-11-09T05:21:33.460Z,73.5
2023-11-09T05:22:47.754Z,73.8
2023-11-09T05:24:02.047Z,73.7
2023-11-09T05:25:16.341Z,73.5
2023-11-09T05:26:30.635Z,73.2
2023-11-09T05:27:44.928Z,73.5
2023-11-09T05:28:59.222Z,73.1
2023-11-09T05:30:13.515Z,73.1
2023-11-09T05:31:27.809Z,73.3
2023-11-09T05:32:41.118Z,73.5
2023-11-09T05:33:55.412Z,73
2023-11-09T05:35:09.706Z,73.1
2023-11-09T05:36:23.999Z,73.4
2023-11-09T05:37:38.294Z,73.2
2023-11-09T05:38:52.588Z,73.3
2023-11-09T05:40:06.881Z,72.9
2023-11-09T05:41:21.132Z,72.5
2023-11-09T05:42:35.425Z,72.6
2023-11-09T05:43:49.719Z,72.2
2023-11-09T05:45:04.013Z,72.4
2023-11-09T05:46:18.307Z,72.4
2023-11-09T05:47:32.601Z,71.8
2023-11-09T05:48:45.911Z,72.3
2023-11-09T05:50:00.205Z,72.3
2023-11-09T05:51:14.499Z,72.1
2023-11-09T05:52:28.749Z,71.8
2023-11-09T05:53:42.989Z,72
2023-11-09T05:54:57.229Z,72.1
2023-11-09T05:56:11.468Z,72.6
2023-11-09T05:57:25.708Z,72.1
2023-11-09T05:58:39.948Z,72
2023-11-09T05:59:54.187Z,72.1
2023-11-09T06:01:08.427Z,72.4
2023-11-09T06:02:22.666Z,72.4
2023-11-09T06:03:36.906Z,72.6
2023-11-09T06:04:50.161Z,72.3
2023-11-09T06:06:04.401Z,72.3
2023-11-09T06:07:18.640Z,72.5
2023-11-09T06:08:32.880Z,72.2
2023-11-09T06:09:47.120Z,72
2023-11-09T06:11:01.359Z,71.4
2023-11-09T06:12:15.599Z,71.5
2023-11-09T06:13:29.838Z,71.5
2023-11-09T06:14:44.078Z,71.8
2023-11-09T06:15:58.317Z,72.1
2023-11-09T06:17:12.557Z,71.8
2023-11-09T06:18:26.796Z,72
2023-11-09T06:19:41.036Z,71.5
2023-11-09T06:20:54.292Z,71.7
2023-11-09T06:22:08.531Z,71.4
2023-11-09T06:23:22.771Z,71.8
2023-11-09T06:24:37.010Z,71.8
2023-11-09T06:25:51.250Z,71.4
2023-11-09T06:27:05.489Z,71.8
2023-11-09T06:28:19.729Z,72.1
2023-11-09T06:29:33.969Z,71.8
2023-11-09T06:30:48.208Z,72
2023-11-09T06:32:02.448Z,71.7
2023-11-09T06:33:16.687Z,71.8
2023-11-09T06:34:30.927Z,72.1
2023-11-09T06:35:45.166Z,71.8
2023-11-09T06:36:58.422Z,72.2
2023-11-09T06:38:12.663Z,72.3
2023-11-09T06:39:26.902Z,72.2
2023-11-09T06:40:41.142Z,72.2
2023-11-09T06:41:55.381Z,72.6
2023-11-09T06:43:09.621Z,72.6
2023-11-09T06:44:23.860Z,72.5
2023-11-09T06:45:38.100Z,72.5
2023-11-09T06:46:52.339Z,72.7
2023-11-09T06:48:06.579Z,72.8
2023-11-09T06:49:20.818Z,72.9
2023-11-09T06:50:35.058Z,73.3
2023-11-09T06:51:49.298Z,73.1
2023-11-09T06:53:02.553Z,73.1
2023-11-09T06:54:16.793Z,73.2
2023-11-09T06:55:31.032Z,73.3
2023-11-09T06:56:45.272Z,73.4
2023-11-09T06:57:59.512Z,73.3
2023-11-09T06:59:13.751Z,73.2
2023-11-09T07:00:27.991Z,73.4
2023-11-09T07:01:42.231Z,73.3
2023-11-09T07:02:56.471Z,73
2023-11-09T07:04:10.711Z,72.9
2023-11-09T07:05:24.950Z,72.9
2023-11-09T07:06:39.190Z,72.8
2023-11-09T07:07:53.429Z,73.1
2023-11-09T07:09:06.685Z,73.1
2023-11-09T07:10:20.924Z,72.8
2023-11-09T07:11:35.164Z,73.2
2023-11-09T07:12:49.403Z,73.4
2023-11-09T07:14:03.643Z,73.3
2023-11-09T07:15:17.883Z,73.4
2023-11-09T07:16:32.122Z,73.4
2023-11-09T07:17:46.362Z,73.2
2023-11-09T07:19:00.601Z,73.5
2023-11-09T07:20:14.841Z,73.3
2023-11-09T07:21:29.080Z,73.5
2023-11-09T07:22:43.320Z,73.1
2023-11-09T07:23:57.560Z,72.9
2023-11-09T07:25:10.815Z,73.4
2023-11-09T07:26:25.055Z,73.5
2023-11-09T07:27:39.294Z,73.8
2023-11-09T07:28:53.534Z,73.4
2023-11-09T07:30:07.773Z,73.3
2023-11-09T07:31:22.013Z,73.5
2023-11-09T07:32:36.252Z,72.7
2023-11-09T07:33:50.492Z,72.7
2023-11-09T07:35:04.732Z,72.9
2023-11-09T07:36:18.971Z,73.1
2023-11-09T07:37:33.211Z,72.7
2023-11-09T07:38:47.450Z,72.5
2023-11-09T07:40:01.690Z,72.3
2023-11-09T07:41:14.945Z,72.4
2023-11-09T07:42:29.185Z,72.2
2023-11-09T07:43:43.424Z,72.4
2023-11-09T07:44:57.664Z,72
2023-11-09T07:46:11.904Z,72
2023-11-09T07:47:26.143Z,71.6
2023-11-09T07:48:40.382Z,70.8
2023-11-09T07:49:54.622Z,71.3
2023-11-09T07:51:08.861Z,71.5
2023-11-09T07:52:23.101Z,70.8
2023-11-09T07:53:37.340Z,70.5
2023-11-09T07:54:51.580Z,70.5
2023-11-09T07:56:05.819Z,70.3
2023-11-09T07:57:19.075Z,70.3
2023-11-09T07:58:33.314Z,70
2023-11-09T07:59:47.554Z,69.9
2023-11-09T08:01:01.793Z,69.9
2023-11-09T08:02:16.032Z,69.2
2023-11-09T08:03:30.272Z,69.6
2023-11-09T08:04:43.532Z,70
2023-11-09T08:05:57.772Z,70
2023-11-09T08:07:12.011Z,69.5
2023-11-09T08:08:25.272Z,69.8
2023-11-09T08:09:38.511Z,69.9
2023-11-09T08:10:52.889Z,70.1
2023-11-09T08:12:07.134Z,69.7
2023-11-09T08:13:21.373Z,69.8
2023-11-09T08:14:35.613Z,69.8
2023-11-09T08:15:49.852Z,69.8
2023-11-09T08:17:04.091Z,69.8
2023-11-09T08:18:18.331Z,70
2023-11-09T08:19:32.570Z,69.9
2023-11-09T08:20:46.809Z,69.7
2023-11-09T08:22:01.049Z,69.7
2023-11-09T08:23:15.288Z,69.3
2023-11-09T08:24:29.528Z,69.7
2023-11-09T08:25:43.767Z,69.5
2023-11-09T08:26:57.023Z,69.5
2023-11-09T08:28:11.263Z,69.4
2023-11-09T08:29:25.503Z,69.1
2023-11-09T08:30:39.742Z,69
2023-11-09T08:31:53.982Z,69.2
2023-11-09T08:33:08.223Z,69.6
2023-11-09T08:34:22.463Z,69.6
2023-11-09T08:35:36.702Z,69.1
2023-11-09T08:36:50.942Z,69.3
2023-11-09T08:38:05.182Z,69.3
2023-11-09T08:39:19.421Z,69.3
2023-11-09T08:40:33.661Z,69.8
2023-11-09T08:41:47.901Z,70
2023-11-09T08:43:01.134Z,70
2023-11-09T08:44:15.396Z,69.2
2023-11-09T08:45:29.636Z,69.1
2023-11-09T08:46:43.876Z,68.6
2023-11-09T08:47:58.115Z,68.9
2023-11-09T08:49:12.355Z,69.1
2023-11-09T08:50:26.595Z,68.4
2023-11-09T08:51:40.834Z,68.5
2023-11-09T08:52:55.074Z,69
2023-11-09T08:54:09.314Z,68.8
2023-11-09T08:55:23.554Z,69
2023-11-09T08:56:37.793Z,68.4
2023-11-09T08:57:52.033Z,68.5
2023-11-09T08:59:05.288Z,68.5
2023-11-09T09:00:19.528Z,68.7
2023-11-09T09:01:33.768Z,69.6
2023-11-09T09:02:48.007Z,69.4
2023-11-09T09:04:02.247Z,69.3
2023-11-09T09:05:16.487Z,69.7
2023-11-09T09:06:30.727Z,69.2
2023-11-09T09:07:44.966Z,69.8
2023-11-09T09:08:59.206Z,68.6
2023-11-09T09:10:13.446Z,68.5
2023-11-09T09:11:27.686Z,68.4
2023-11-09T09:12:41.925Z,68.7
2023-11-09T09:13:56.165Z,68.5
2023-11-09T09:15:09.426Z,67.9
2023-11-09T09:16:22.682Z,67.5
2023-11-09T09:17:36.922Z,68.3
2023-11-09T09:18:51.161Z,68.1
2023-11-09T09:20:05.401Z,68.4
2023-11-09T09:21:19.640Z,68.5
2023-11-09T09:22:33.880Z,67.8
2023-11-09T09:23:48.119Z,68.5
2023-11-09T09:25:02.358Z,68
2023-11-09T09:26:16.597Z,68.3
2023-11-09T09:27:30.837Z,68.5
2023-11-09T09:28:45.076Z,68.2
2023-11-09T09:29:59.316Z,68.1
2023-11-09T09:31:13.556Z,68.3
2023-11-09T09:32:26.812Z,67.9
2023-11-09T09:33:41.052Z,67.8
2023-11-09T09:34:55.291Z,68
2023-11-09T09:36:09.530Z,67.3
2023-11-09T09:37:23.769Z,66.3
2023-11-09T09:38:38.009Z,66
2023-11-09T09:39:52.249Z,65.1
2023-11-09T09:41:06.489Z,65.4
2023-11-09T09:42:20.728Z,66.3
2023-11-09T09:43:34.968Z,65.4
2023-11-09T09:44:49.207Z,64.9
2023-11-09T09:46:03.447Z,64.9
2023-11-09T09:47:17.687Z,65
2023-11-09T09:48:30.943Z,65.6
2023-11-09T09:49:45.183Z,64.5
2023-11-09T09:50:59.422Z,64.4
2023-11-09T09:52:13.662Z,64.2
2023-11-09T09:53:27.901Z,64.7
2023-11-09T09:54:42.140Z,64.5
2023-11-09T09:55:56.380Z,63.5
2023-11-09T09:57:10.619Z,64
2023-11-09T09:58:24.858Z,63.7
2023-11-09T09:59:39.098Z,64.2
2023-11-09T10:00:53.337Z,63.8
2023-11-09T10:02:07.576Z,63.5
2023-11-09T10:03:21.815Z,63.8
2023-11-09T10:04:35.070Z,64.1
2023-11-09T10:05:49.309Z,63.9
2023-11-09T10:07:03.548Z,63.4
2023-11-09T10:08:17.787Z,63.4
2023-11-09T10:09:32.026Z,63.5
2023-11-09T10:10:46.265Z,63.7
2023-11-09T10:12:00.505Z,64
2023-11-09T10:13:14.744Z,64
2023-11-09T10:14:28.983Z,64.4
2023-11-09T10:15:43.222Z,64.5
2023-11-09T10:16:57.461Z,64
2023-11-09T10:18:11.700Z,63.4
2023-11-09T10:19:25.939Z,64.2
2023-11-09T10:20:39.195Z,63.6
2023-11-09T10:21:53.435Z,63.8
2023-11-09T10:23:07.674Z,63.4
2023-11-09T10:24:21.913Z,64.2
2023-11-09T10:25:36.153Z,64
2023-11-09T10:26:50.392Z,64
2023-11-09T10:28:04.631Z,63.4
2023-11-09T10:29:18.871Z,63.3
2023-11-09T10:30:33.110Z,63.4
2023-11-09T10:31:47.349Z,63.1
2023-11-09T10:33:01.588Z,63.4
2023-11-09T10:34:15.828Z,62.7
2023-11-09T10:35:30.067Z,62.6
2023-11-09T10:36:43.323Z,63.4
2023-11-09T10:37:57.562Z,63.2
2023-11-09T10:39:11.801Z,62.5
2023-11-09T10:40:26.041Z,63.1
2023-11-09T10:41:40.280Z,63.2
2023-11-09T10:42:54.520Z,62.9
2023-11-09T10:44:08.759Z,62.6
2023-11-09T10:45:22.999Z,63.3
2023-11-09T10:46:37.238Z,63.3
2023-11-09T10:47:51.477Z,62.8
2023-11-09T10:49:05.717Z,62.4
2023-11-09T10:50:19.956Z,63.1
2023-11-09T10:51:34.196Z,62.8
2023-11-09T10:52:48.435Z,63.5
2023-11-09T10:54:01.691Z,63.1
2023-11-09T10:55:15.930Z,63.1
2023-11-09T10:56:30.170Z,63.1
2023-11-09T10:57:44.409Z,63.3
2023-11-09T10:58:58.648Z,63.7
2023-11-09T11:00:12.872Z,63.5
2023-11-09T11:01:27.127Z,63.2
2023-11-09T11:02:41.366Z,63.2
2023-11-09T11:03:55.606Z,64.1
2023-11-09T11:05:09.846Z,63.5
2023-11-09T11:06:24.085Z,63.5
2023-11-09T11:07:38.324Z,63.6
2023-11-09T11:08:52.564Z,63.5
2023-11-09T11:10:05.819Z,63.6
2023-11-09T11:11:20.060Z,63.9
2023-11-09T11:12:34.299Z,64.3
2023-11-09T11:13:48.538Z,64.3
2023-11-09T11:15:02.778Z,64.3
2023-11-09T11:16:17.017Z,64.5
2023-11-09T11:17:31.257Z,64.3
2023-11-09T11:18:45.496Z,64.8
2023-11-09T11:19:59.736Z,65.1
2023-11-09T11:21:13.975Z,65.7
2023-11-09T11:22:28.214Z,65.5
2023-11-09T11:23:42.454Z,65.7
2023-11-09T11:24:56.693Z,65
2023-11-09T11:26:09.949Z,64.3
2023-11-09T11:27:24.188Z,65
2023-11-09T11:28:38.427Z,64.5
2023-11-09T11:29:52.667Z,64.7
2023-11-09T11:31:06.906Z,64.7
2023-11-09T11:32:21.145Z,65.9
2023-11-09T11:33:35.363Z,65.2
2023-11-09T11:34:49.624Z,64.9
2023-11-09T11:36:03.863Z,65.1
2023-11-09T11:37:18.103Z,64.2
2023-11-09T11:38:32.342Z,65.3
2023-11-09T11:39:46.581Z,65.9
2023-11-09T11:41:00.820Z,65.1
2023-11-09T11:42:14.075Z,65.4
2023-11-09T11:43:28.314Z,66.1
2023-11-09T11:44:42.553Z,65.3
2023-11-09T11:45:56.792Z,65.4
2023-11-09T11:47:11.032Z,64.9
2023-11-09T11:48:25.271Z,64.6
2023-11-09T11:49:39.511Z,65.1
2023-11-09T11:50:53.750Z,64.8
2023-11-09T11:52:07.989Z,64.7
2023-11-09T11:53:22.229Z,64.9
2023-11-09T11:54:36.468Z,65.3
2023-11-09T11:55:50.707Z,65.1
2023-11-09T11:57:04.946Z,65.7
2023-11-09T11:58:18.202Z,64.9
2023-11-09T11:59:32.440Z,65.3
2023-11-09T12:00:46.680Z,65.3
2023-11-09T12:02:00.919Z,65.4
2023-11-09T12:03:15.158Z,65.4
2023-11-09T12:04:29.397Z,65.6
2023-11-09T12:05:43.636Z,65.7
2023-11-09T12:06:57.875Z,65.9
2023-11-09T12:08:12.115Z,65.8
2023-11-09T12:09:26.354Z,65.9
2023-11-09T12:10:40.593Z,66.3
2023-11-09T12:11:54.832Z,65.7
2023-11-09T12:13:08.093Z,65.7
2023-11-09T12:14:22.332Z,65.5
2023-11-09T12:15:36.571Z,65.7
2023-11-09T12:16:50.810Z,65.3
2023-11-09T12:18:05.049Z,65.7
2023-11-09T12:19:19.289Z,64.7
2023-11-09T12:20:33.528Z,64.9
2023-11-09T12:21:47.768Z,65.8
2023-11-09T12:23:02.007Z,64.9
2023-11-09T12:24:16.246Z,64.6
2023-11-09T12:25:30.485Z,65.1
2023-11-09T12:26:44.725Z,65.5
2023-11-09T12:27:58.964Z,64.7
2023-11-09T12:29:12.219Z,65.3
2023-11-09T12:30:26.459Z,64.8
2023-11-09T12:31:40.698Z,65.1
2023-11-09T12:32:54.937Z,65.3
2023-11-09T12:34:09.177Z,64.5
2023-11-09T12:35:23.416Z,65.3
2023-11-09T12:36:37.656Z,65
2023-11-09T12:37:51.877Z,64.3
2023-11-09T12:39:06.134Z,64.8
2023-11-09T12:40:20.374Z,65
2023-11-09T12:41:34.614Z,64.9
2023-11-09T12:42:48.853Z,64.5
2023-11-09T12:44:03.092Z,65.1
2023-11-09T12:45:16.348Z,65.3
2023-11-09T12:46:30.587Z,65.9
2023-11-09T12:47:44.809Z,65.4
2023-11-09T12:48:59.066Z,65.7
2023-11-09T12:50:13.305Z,65.4
2023-11-09T12:51:27.545Z,65.9
2023-11-09T12:52:41.784Z,65.6
2023-11-09T12:53:56.024Z,66.2
2023-11-09T12:55:10.263Z,66.3
2023-11-09T12:56:24.503Z,66.3
2023-11-09T12:57:38.742Z,66.7
2023-11-09T12:58:52.982Z,65.7
2023-11-09T13:00:07.221Z,65.7
2023-11-09T13:01:20.477Z,65.9
2023-11-09T13:02:34.716Z,66.5
2023-11-09T13:03:48.956Z,66.8
2023-11-09T13:05:03.195Z,66.4
2023-11-09T13:07:31.674Z,66.2
2023-11-09T13:08:45.913Z,66.8
2023-11-09T13:10:00.154Z,66.8
2023-11-09T13:11:14.393Z,66.8
2023-11-09T13:12:28.633Z,67.2
2023-11-09T13:13:42.872Z,67.5
2023-11-09T13:14:57.111Z,67.8
2023-11-09T13:16:11.352Z,67.6
2023-11-09T13:17:24.607Z,66.8
2023-11-09T13:18:38.846Z,67.2
2023-11-09T13:19:53.086Z,66.8
2023-11-09T13:21:07.325Z,67.3
2023-11-09T13:22:21.564Z,67.2
2023-11-09T13:23:35.804Z,67.3
2023-11-09T13:24:50.044Z,67.4
2023-11-09T13:26:04.283Z,67.2
2023-11-09T13:27:18.522Z,68
2023-11-09T13:28:32.762Z,67.9
2023-11-09T13:29:47.001Z,67.7
2023-11-09T13:31:01.240Z,67.7
2023-11-09T13:32:15.479Z,68.1
2023-11-09T13:33:28.735Z,68.3
2023-11-09T13:34:42.974Z,68.6
2023-11-09T13:35:56.235Z,68.8
2023-11-09T13:37:09.496Z,69.3
2023-11-09T13:38:22.751Z,69.4
2023-11-09T13:39:36.990Z,69.3
2023-11-09T13:40:51.229Z,69.8
2023-11-09T13:42:05.468Z,69.8
2023-11-09T13:43:19.708Z,70.1
2023-11-09T13:44:33.947Z,69.3
2023-11-09T13:45:48.186Z,69
2023-11-09T13:47:02.425Z,69.7
2023-11-09T13:48:16.665Z,69.7
2023-11-09T13:49:30.904Z,69.7
2023-11-09T13:50:45.134Z,70.2
2023-11-09T13:51:59.383Z,70.2
2023-11-09T13:53:13.622Z,70.4
2023-11-09T13:54:26.877Z,70.4
2023-11-09T13:55:41.116Z,70.5
2023-11-09T13:56:55.355Z,70.9
2023-11-09T13:58:09.594Z,70.5
2023-11-09T13:59:23.833Z,70.7
2023-11-09T14:00:38.073Z,70.8
2023-11-09T14:01:52.312Z,70.3
2023-11-09T14:03:06.551Z,70.5
2023-11-09T14:04:20.791Z,70.4
2023-11-09T14:05:35.030Z,69.8
2023-11-09T14:06:49.269Z,70
2023-11-09T14:08:03.508Z,69.9
2023-11-09T14:09:17.748Z,70.2
2023-11-09T14:10:31.003Z,70.3
2023-11-09T14:11:45.242Z,69.7
2023-11-09T14:12:59.481Z,69.6
2023-11-09T14:14:13.720Z,69.4
2023-11-09T14:15:27.960Z,69.7
2023-11-09T14:16:42.199Z,69.9
2023-11-09T14:17:56.438Z,70
2023-11-09T14:19:10.678Z,69.6
2023-11-09T14:20:24.917Z,69.6
2023-11-09T14:21:39.156Z,69.8
2023-11-09T14:22:53.395Z,69.8
2023-11-09T14:24:07.634Z,70.3
2023-11-09T14:25:21.873Z,70.2
2023-11-09T14:26:35.129Z,71
2023-11-09T14:27:49.368Z,70.7
2023-11-09T14:29:03.607Z,71.2
2023-11-09T14:30:17.846Z,71.3
2023-11-09T14:31:32.085Z,71.6
2023-11-09T14:32:46.324Z,71.6
2023-11-09T14:34:00.563Z,71.5
2023-11-09T14:35:14.802Z,71.5
2023-11-09T14:36:29.042Z,71.4
2023-11-09T14:37:43.281Z,71.3
2023-11-09T14:38:57.520Z,71.7
2023-11-09T14:40:11.759Z,72.4
2023-11-09T14:41:25.999Z,72.3
2023-11-09T14:42:39.254Z,72.6
2023-11-09T14:43:53.493Z,71.8
2023-11-09T14:45:07.732Z,72.1
2023-11-09T14:46:21.971Z,72.4
2023-11-09T14:47:36.210Z,72.9
2023-11-09T14:48:50.449Z,72.5
2023-11-09T14:50:04.688Z,72.5
2023-11-09T14:51:18.928Z,73
2023-11-09T14:52:33.168Z,73.3
2023-11-09T14:53:47.407Z,73.8
2023-11-09T14:55:01.645Z,74.2
2023-11-09T14:56:15.884Z,74.3
2023-11-09T14:57:30.123Z,74.8
2023-11-09T14:58:43.379Z,74.8
2023-11-09T14:59:57.617Z,75.1
2023-11-09T15:01:11.857Z,75.5
2023-11-09T15:02:26.096Z,75.5
2023-11-09T15:03:40.335Z,75.7
2023-11-09T15:04:54.574Z,75.8
2023-11-09T15:06:08.813Z,76
2023-11-09T15:07:23.052Z,76.4
2023-11-09T15:08:37.291Z,76.7
2023-11-09T15:09:51.530Z,76.5
2023-11-09T15:11:05.769Z,76.6
2023-11-09T15:12:20.008Z,76.7
2023-11-09T15:13:34.236Z,77
2023-11-09T15:14:47.503Z,76.8
2023-11-09T15:16:01.735Z,77
2023-11-09T15:17:15.981Z,77.1
2023-11-09T15:18:30.220Z,77.4
2023-11-09T15:19:44.459Z,77.7
2023-11-09T15:20:58.698Z,77.7
2023-11-09T15:22:12.938Z,77.6
2023-11-09T15:23:27.177Z,77.6
2023-11-09T15:24:41.417Z,77.7
2023-11-09T15:25:55.655Z,77.8
2023-11-09T15:27:09.895Z,78
2023-11-09T15:28:24.135Z,77.7
2023-11-09T15:29:38.374Z,77.8
2023-11-09T15:30:51.629Z,77.9
2023-11-09T15:32:05.868Z,78.2
2023-11-09T15:33:20.108Z,78.2
2023-11-09T15:34:34.348Z,78.2
2023-11-09T15:35:48.588Z,78.3
2023-11-09T15:37:02.827Z,78.5
2023-11-09T15:38:17.066Z,78.5
2023-11-09T15:39:31.305Z,78.7
2023-11-09T15:40:45.544Z,78.8
2023-11-09T15:41:59.783Z,79.1
2023-11-09T15:43:14.023Z,79.2
2023-11-09T15:44:28.262Z,79.4
2023-11-09T15:45:42.502Z,79.5
2023-11-09T15:46:55.758Z,79.6
2023-11-09T15:48:09.998Z,79.7
2023-11-09T15:49:24.237Z,79.8
2023-11-09T15:50:38.477Z,80.1
2023-11-09T15:51:52.716Z,80.2
2023-11-09T15:53:06.956Z,80.2
2023-11-09T15:54:21.250Z,80.3
2023-11-09T15:55:35.543Z,80
2023-11-09T15:56:49.784Z,79.9
2023-11-09T15:58:04.024Z,79.8
2023-11-09T15:59:18.263Z,79.8
2023-11-09T16:00:32.557Z,79.9
2023-11-09T16:01:46.850Z,79.7
2023-11-09T16:03:00.160Z,79.6
2023-11-09T16:04:14.453Z,79.7
2023-11-09T16:05:28.747Z,79.9
2023-11-09T16:06:43.041Z,79.6
2023-11-09T16:07:57.335Z,79.5
2023-11-09T16:09:11.628Z,79.5
2023-11-09T16:10:25.922Z,79.8
2023-11-09T16:11:40.215Z,79.6
2023-11-09T16:12:54.509Z,79.7
2023-11-09T16:14:08.802Z,79.9
2023-11-09T16:15:23.096Z,79.9
2023-11-09T16:16:37.389Z,80
2023-11-09T16:17:51.685Z,80.2
2023-11-09T16:19:04.994Z,80.3
2023-11-09T16:20:19.288Z,80.4
2023-11-09T16:21:32.603Z,80.2
2023-11-09T16:22:46.897Z,80.2
2023-11-09T16:24:01.190Z,80.1
2023-11-09T16:25:15.484Z,79.9
2023-11-09T16:26:29.778Z,80.1
2023-11-09T16:27:44.072Z,80.2
2023-11-09T16:28:58.366Z,80.4
2023-11-09T16:30:12.660Z,80.4
2023-11-09T16:31:26.954Z,80.3
2023-11-09T16:32:41.247Z,80.1
2023-11-09T16:33:55.541Z,80.1